Time;durP1;ratioP1;P1;durP2;ratioP2;P2;SDS_P1;SDS_P2;PMS_P1;PMS_P2;Temp;Humidity;BMP_temperature;BMP_pressure;BME280_temperature;BME280_humidity;BME280_pressure;Samples;Min_cycle;Max_cycle;Signal;HPM_P1;HPM_P2
2022/12/09 00:00:27;;;;;;;31.73;19.40;;;3.50;99.90;;;;;;5083687;28;20196;-82
2022/12/09 00:02:59;;;;;;;27.45;17.45;;;3.40;99.90;;;;;;5079603;28;20342;-84
2022/12/09 00:05:29;;;;;;;26.33;18.75;;;3.30;99.90;;;;;;5063370;28;20184;-86
2022/12/09 00:07:56;;;;;;;28.90;17.63;;;3.40;99.90;;;;;;5062607;28;20481;-82
2022/12/09 00:10:24;;;;;;;24.95;18.15;;;3.40;99.90;;;;;;5059730;28;20204;-84
2022/12/09 00:12:58;;;;;;;22.90;15.65;;;3.40;99.90;;;;;;5065354;28;20211;-83
2022/12/09 00:15:34;;;;;;;27.88;18.27;;;3.10;99.90;;;;;;5071554;28;20204;-82
2022/12/09 00:18:09;;;;;;;27.02;18.45;;;3.20;99.90;;;;;;5070215;28;20203;-83
2022/12/09 00:20:36;;;;;;;26.83;17.90;;;3.30;99.90;;;;;;5068828;28;20204;-85
2022/12/09 00:23:04;;;;;;;25.52;17.65;;;3.10;99.90;;;;;;5056684;28;20275;-83
2022/12/09 00:25:37;;;;;;;29.45;17.50;;;3.20;99.90;;;;;;5046797;28;20205;-83
2022/12/09 00:28:04;;;;;;;22.67;17.60;;;3.20;99.90;;;;;;5063209;28;20396;-84
2022/12/09 00:30:34;;;;;;;26.05;15.85;;;3.10;99.90;;;;;;5058576;28;20481;-83
2022/12/09 00:33:03;;;;;;;29.67;18.15;;;3.00;99.90;;;;;;5072117;28;20192;-85
2022/12/09 00:35:33;;;;;;;29.98;17.65;;;2.80;99.90;;;;;;5079056;28;20823;-82
2022/12/09 00:38:10;;;;;;;25.42;17.40;;;2.80;99.90;;;;;;5073890;28;20204;-83
2022/12/09 00:40:37;;;;;;;25.95;17.67;;;2.90;99.90;;;;;;5067188;28;20396;-83
2022/12/09 00:43:12;;;;;;;28.65;18.95;;;3.10;99.90;;;;;;5074503;28;20262;-84
2022/12/09 00:45:42;;;;;;;25.48;18.30;;;3.10;99.90;;;;;;5079556;28;20235;-84
2022/12/09 00:48:12;;;;;;;28.02;18.35;;;3.00;99.90;;;;;;5077295;28;20192;-84
2022/12/09 00:50:39;;;;;;;27.67;17.98;;;3.00;99.90;;;;;;5058297;28;20199;-84
2022/12/09 00:53:08;;;;;;;29.48;16.95;;;3.10;99.90;;;;;;5058612;28;20401;-85
2022/12/09 00:55:35;;;;;;;23.00;16.27;;;3.30;99.90;;;;;;5066529;28;20496;-84
2022/12/09 00:58:05;;;;;;;25.73;17.20;;;3.40;99.90;;;;;;5062982;28;20490;-87
2022/12/09 01:00:32;;;;;;;35.63;22.83;;;3.30;99.90;;;;;;5064023;28;20291;-85
2022/12/09 01:03:04;;;;;;;27.52;18.75;;;3.20;99.90;;;;;;5063289;28;20266;-86
2022/12/09 01:05:34;;;;;;;31.75;18.42;;;2.90;99.90;;;;;;5062368;28;20216;-84
2022/12/09 01:08:05;;;;;;;23.98;18.30;;;2.90;99.90;;;;;;5062267;28;20195;-84
2022/12/09 01:10:33;;;;;;;27.65;17.92;;;2.80;99.90;;;;;;5064793;28;20396;-84
2022/12/09 01:13:03;;;;;;;23.67;16.17;;;2.80;99.90;;;;;;5068329;28;20196;-85
2022/12/09 01:15:31;;;;;;;26.98;16.70;;;2.80;99.90;;;;;;5066237;28;20232;-84
2022/12/09 01:17:59;;;;;;;25.30;17.35;;;2.90;99.90;;;;;;5063406;28;20203;-83
2022/12/09 01:20:28;;;;;;;26.10;18.05;;;2.80;99.90;;;;;;5054876;28;20196;-83
2022/12/09 01:23:01;;;;;;;27.85;18.15;;;3.30;99.90;;;;;;5049535;28;20234;-85
2022/12/09 01:25:30;;;;;;;32.22;17.27;;;3.30;99.90;;;;;;5047980;28;20232;-84
2022/12/09 01:27:57;;;;;;;23.27;16.17;;;3.20;99.90;;;;;;5043898;28;20207;-84
2022/12/09 01:30:28;;;;;;;22.48;15.68;;;2.90;99.90;;;;;;5049713;28;20639;-84
2022/12/09 01:32:55;;;;;;;23.48;16.88;;;3.20;99.90;;;;;;5045520;28;20502;-82
2022/12/09 01:35:27;;;;;;;24.63;18.65;;;3.20;99.90;;;;;;5048147;28;20230;-82
2022/12/09 01:37:55;;;;;;;27.58;19.73;;;3.00;99.90;;;;;;5050052;28;20224;-83
2022/12/09 01:40:22;;;;;;;26.30;16.90;;;3.10;99.90;;;;;;5048499;28;20280;-84
2022/12/09 01:42:51;;;;;;;29.05;16.98;;;3.30;99.90;;;;;;5046146;28;20204;-87
2022/12/09 01:45:18;;;;;;;28.20;17.42;;;3.20;99.90;;;;;;5048064;28;20213;-86
2022/12/09 01:47:59;;;;;;;23.52;15.07;;;3.40;99.90;;;;;;5055044;28;20205;-84
2022/12/09 01:50:28;;;;;;;25.13;16.45;;;3.60;99.90;;;;;;5049432;28;20563;-86
2022/12/09 01:52:57;;;;;;;24.20;16.25;;;3.80;99.90;;;;;;5053587;28;20224;-86
2022/12/09 01:55:25;;;;;;;23.23;17.85;;;3.80;99.90;;;;;;5057195;28;20240;-84
2022/12/09 01:57:53;;;;;;;24.38;16.73;;;4.00;99.90;;;;;;5051017;28;20204;-87
2022/12/09 02:00:25;;;;;;;27.15;15.75;;;4.00;99.90;;;;;;5062438;28;20280;-85
2022/12/09 02:02:55;;;;;;;26.92;16.90;;;4.10;99.90;;;;;;5062853;28;20208;-85
2022/12/09 02:05:23;;;;;;;21.60;15.63;;;4.00;99.90;;;;;;5057361;28;20212;-85
2022/12/09 02:07:52;;;;;;;21.73;14.00;;;4.00;99.90;;;;;;5068710;28;20203;-85
2022/12/09 02:10:20;;;;;;;22.27;15.07;;;3.80;99.90;;;;;;5041828;28;20208;-86
2022/12/09 02:13:21;;;;;;;24.27;15.00;;;3.90;99.90;;;;;;5065336;28;20212;-87
2022/12/09 02:15:58;;;;;;;22.73;15.45;;;3.90;99.90;;;;;;5058878;28;20230;-85
2022/12/09 02:18:46;;;;;;;22.60;14.73;;;4.00;99.90;;;;;;5054685;28;20775;-84
2022/12/09 02:21:33;;;;;;;19.50;12.98;;;4.00;99.90;;;;;;5071139;28;20204;-85
2022/12/09 02:24:14;;;;;;;22.30;14.93;;;4.10;99.90;;;;;;5061503;28;20507;-85
2022/12/09 02:26:49;;;;;;;24.17;15.73;;;3.80;99.90;;;;;;5074757;28;20278;-84
2022/12/09 02:29:34;;;;;;;22.02;14.70;;;3.70;99.90;;;;;;5067113;28;20231;-84
2022/12/09 02:32:19;;;;;;;24.65;14.63;;;3.80;99.90;;;;;;5061139;28;20204;-83
2022/12/09 02:34:56;;;;;;;19.52;13.30;;;3.70;99.90;;;;;;5060352;28;20230;-84
2022/12/09 02:37:30;;;;;;;22.02;16.20;;;3.60;99.90;;;;;;5064789;28;20239;-84
2022/12/09 02:40:53;;;;;;;21.40;13.55;;;3.50;99.90;;;;;;5067366;28;20260;-84
2022/12/09 02:43:29;;;;;;;21.70;16.40;;;3.60;99.90;;;;;;5044344;28;20239;-83
2022/12/09 02:45:58;;;;;;;23.35;14.95;;;3.60;99.90;;;;;;5065737;28;20250;-82
2022/12/09 02:48:35;;;;;;;20.20;15.18;;;3.40;99.90;;;;;;5064079;28;20454;-85
2022/12/09 02:51:09;;;;;;;24.48;15.98;;;3.40;99.90;;;;;;5054574;28;20686;-83
2022/12/09 02:53:48;;;;;;;20.90;15.27;;;3.50;99.90;;;;;;5066278;28;20241;-84
2022/12/09 02:56:16;;;;;;;22.48;15.10;;;3.50;99.90;;;;;;5067140;28;20208;-85
2022/12/09 02:58:44;;;;;;;24.25;17.27;;;3.40;99.90;;;;;;5065693;28;20203;-84
2022/12/09 03:01:44;;;;;;;28.35;15.98;;;3.00;99.90;;;;;;5062272;28;20203;-82
2022/12/09 03:04:22;;;;;;;26.70;16.02;;;3.00;99.90;;;;;;5064891;28;20275;-84
2022/12/09 03:06:52;;;;;;;29.45;18.15;;;3.20;99.90;;;;;;5071536;28;20367;-82
2022/12/09 03:09:35;;;;;;;21.63;14.95;;;3.10;99.90;;;;;;5068035;28;20208;-82
2022/12/09 03:12:10;;;;;;;26.55;16.10;;;3.10;99.90;;;;;;5068143;28;20267;-83
2022/12/09 03:14:52;;;;;;;28.35;18.42;;;3.20;99.90;;;;;;5066154;28;20214;-82
2022/12/09 03:17:24;;;;;;;21.05;14.50;;;3.30;99.90;;;;;;5057616;28;20197;-82
2022/12/09 03:19:56;;;;;;;24.95;14.30;;;3.20;99.90;;;;;;5047242;28;20695;-83
2022/12/09 03:22:28;;;;;;;26.50;16.60;;;3.30;99.90;;;;;;5065478;28;20222;-83
2022/12/09 03:25:09;;;;;;;32.33;19.20;;;3.50;99.90;;;;;;5071249;28;20282;-84
2022/12/09 03:28:00;;;;;;;26.50;16.65;;;3.50;99.90;;;;;;5068197;28;20535;-84
2022/12/09 03:30:36;;;;;;;29.73;16.75;;;3.40;99.90;;;;;;5057525;28;20200;-84
2022/12/09 03:33:04;;;;;;;28.45;18.67;;;3.40;99.90;;;;;;5065511;28;20211;-83
2022/12/09 03:35:36;;;;;;;25.52;16.52;;;3.40;99.90;;;;;;5063699;28;20389;-84
2022/12/09 03:38:08;;;;;;;22.15;16.90;;;3.30;99.90;;;;;;5068171;28;20464;-84
2022/12/09 03:40:40;;;;;;;26.88;17.92;;;3.40;99.90;;;;;;5064746;28;20211;-84
2022/12/09 03:43:14;;;;;;;27.92;17.20;;;3.40;99.90;;;;;;5067890;28;20286;-84
2022/12/09 03:45:42;;;;;;;24.63;17.40;;;3.40;99.90;;;;;;5058805;28;20227;-84
2022/12/09 03:48:11;;;;;;;23.30;17.08;;;3.40;99.90;;;;;;5044001;28;20310;-84
2022/12/09 03:50:48;;;;;;;27.95;17.33;;;3.60;99.90;;;;;;5066852;28;20500;-84
2022/12/09 03:53:22;;;;;;;23.10;17.23;;;3.50;99.90;;;;;;5059566;28;20510;-84
2022/12/09 03:56:01;;;;;;;26.63;17.13;;;3.60;99.90;;;;;;5059276;28;20230;-84
2022/12/09 03:58:33;;;;;;;30.83;17.40;;;3.60;99.90;;;;;;5058061;28;20264;-83
2022/12/09 04:01:01;;;;;;;25.58;16.95;;;3.70;99.90;;;;;;5073226;28;20266;-83
2022/12/09 04:03:31;;;;;;;28.73;15.07;;;3.70;99.90;;;;;;5055801;28;20201;-83
2022/12/09 04:05:59;;;;;;;27.00;16.13;;;3.70;99.90;;;;;;5067096;28;20203;-83
2022/12/09 04:08:27;;;;;;;25.98;16.52;;;3.80;99.90;;;;;;5048278;28;20222;-85
2022/12/09 04:10:54;;;;;;;29.35;17.80;;;3.80;99.90;;;;;;5065852;28;20421;-83
2022/12/09 04:13:22;;;;;;;26.38;18.70;;;3.80;99.90;;;;;;5062971;28;20212;-83
2022/12/09 04:15:50;;;;;;;24.50;17.42;;;3.60;99.90;;;;;;5056655;28;20260;-83
2022/12/09 04:18:22;;;;;;;27.80;17.48;;;3.30;99.90;;;;;;5062479;28;20207;-82
2022/12/09 04:20:51;;;;;;;26.73;17.90;;;3.40;99.90;;;;;;5058668;28;20280;-82
2022/12/09 04:23:19;;;;;;;27.52;18.17;;;3.50;99.90;;;;;;5057926;28;20472;-83
2022/12/09 04:25:49;;;;;;;29.60;18.55;;;3.40;99.90;;;;;;5064650;28;20195;-83
2022/12/09 04:28:32;;;;;;;25.42;17.67;;;3.50;99.90;;;;;;5056628;28;20207;-82
2022/12/09 04:30:59;;;;;;;22.20;17.45;;;3.40;99.90;;;;;;5065297;28;20189;-83
2022/12/09 04:33:27;;;;;;;25.73;16.33;;;3.40;99.90;;;;;;5070054;28;20256;-86
2022/12/09 04:36:07;;;;;;;26.77;17.77;;;3.40;99.90;;;;;;5077355;28;20199;-84
2022/12/09 04:38:36;;;;;;;25.40;18.17;;;3.30;99.90;;;;;;5065880;28;21294;-85
2022/12/09 04:41:03;;;;;;;34.78;16.80;;;3.10;99.90;;;;;;5074672;28;20546;-85
2022/12/09 04:43:33;;;;;;;31.17;17.23;;;3.00;99.90;;;;;;5056998;28;20231;-85
2022/12/09 04:46:05;;;;;;;27.42;17.17;;;2.70;99.90;;;;;;5067396;28;20208;-85
2022/12/09 04:48:34;;;;;;;27.08;20.17;;;2.50;99.90;;;;;;5069873;28;20208;-85
2022/12/09 04:51:02;;;;;;;31.20;19.95;;;2.20;99.90;;;;;;5061895;28;20274;-87
2022/12/09 04:53:31;;;;;;;24.17;17.58;;;2.00;99.90;;;;;;5064521;28;20200;-85
2022/12/09 04:56:12;;;;;;;29.40;21.55;;;2.00;99.90;;;;;;5060511;28;20380;-85
2022/12/09 04:58:43;;;;;;;30.60;19.38;;;1.80;99.90;;;;;;5065762;28;20223;-85
2022/12/09 05:01:17;;;;;;;33.35;21.88;;;1.80;99.90;;;;;;5063330;28;20205;-84
2022/12/09 05:03:51;;;;;;;32.10;18.80;;;2.00;99.90;;;;;;5052527;28;20370;-88
2022/12/09 05:06:22;;;;;;;31.15;20.05;;;2.00;99.90;;;;;;5067354;28;20385;-87
2022/12/09 05:08:52;;;;;;;30.98;19.33;;;2.10;99.90;;;;;;5060199;28;20298;-86
2022/12/09 05:11:22;;;;;;;29.23;19.25;;;2.20;99.90;;;;;;5056660;28;20311;-86
2022/12/09 05:13:52;;;;;;;30.40;19.88;;;2.20;99.90;;;;;;5059436;28;20222;-86
2022/12/09 05:16:22;;;;;;;29.65;19.60;;;2.30;99.90;;;;;;5062473;28;20424;-87
2022/12/09 05:18:50;;;;;;;31.90;20.85;;;2.40;99.90;;;;;;5056152;28;20208;-87
2022/12/09 05:21:20;;;;;;;28.38;18.80;;;2.60;99.90;;;;;;5051781;28;20208;-86
2022/12/09 05:23:49;;;;;;;34.13;18.98;;;2.80;99.90;;;;;;5064455;28;20215;-85
2022/12/09 05:26:22;;;;;;;28.23;19.52;;;2.90;99.90;;;;;;5064408;28;20243;-87
2022/12/09 05:29:03;;;;;;;29.75;19.70;;;3.10;99.90;;;;;;5069491;28;20195;-85
2022/12/09 05:31:50;;;;;;;28.77;19.20;;;3.20;99.90;;;;;;5051799;28;20235;-84
2022/12/09 05:34:20;;;;;;;28.30;19.90;;;3.20;99.90;;;;;;5051733;28;20216;-84
2022/12/09 05:36:50;;;;;;;30.88;18.33;;;3.20;99.90;;;;;;5056253;28;20208;-85
2022/12/09 05:39:26;;;;;;;26.45;17.80;;;3.40;99.90;;;;;;5055625;28;20284;-84
2022/12/09 05:41:55;;;;;;;26.02;18.13;;;3.40;99.90;;;;;;5051579;28;20207;-85
2022/12/09 05:44:23;;;;;;;26.42;17.42;;;3.40;99.90;;;;;;5059350;28;20276;-85
2022/12/09 05:46:50;;;;;;;30.35;19.52;;;3.50;99.90;;;;;;5055443;28;20216;-85
2022/12/09 05:49:37;;;;;;;25.42;16.08;;;3.40;99.90;;;;;;5055227;28;20268;-85
2022/12/09 05:52:15;;;;;;;25.10;16.63;;;3.50;99.90;;;;;;5060995;28;20191;-84
2022/12/09 05:54:45;;;;;;;28.25;17.50;;;3.80;99.90;;;;;;5058115;28;20504;-85
2022/12/09 05:57:18;;;;;;;30.23;19.05;;;3.70;99.90;;;;;;5061126;28;20204;-84
2022/12/09 05:59:49;;;;;;;23.90;15.90;;;3.90;99.90;;;;;;5061925;28;20275;-85
2022/12/09 06:02:21;;;;;;;23.95;15.65;;;3.80;99.90;;;;;;5065844;28;20690;-85
2022/12/09 06:04:59;;;;;;;26.70;17.15;;;3.70;99.90;;;;;;5065355;28;20191;-84
2022/12/09 06:07:31;;;;;;;29.45;19.77;;;3.70;99.90;;;;;;5069298;28;20290;-84
2022/12/09 06:10:00;;;;;;;24.50;17.33;;;3.60;99.90;;;;;;5054770;28;20255;-84
2022/12/09 06:12:40;;;;;;;22.98;15.45;;;3.80;99.90;;;;;;5061677;28;20232;-84
2022/12/09 06:15:09;;;;;;;30.58;18.83;;;4.00;99.90;;;;;;5059732;28;20212;-87
2022/12/09 06:17:42;;;;;;;25.83;17.13;;;4.00;99.90;;;;;;5064752;28;20207;-85
2022/12/09 06:20:23;;;;;;;25.17;16.45;;;4.00;99.90;;;;;;5079805;28;20203;-86
2022/12/09 06:22:52;;;;;;;32.13;21.42;;;4.10;99.90;;;;;;5060072;28;20219;-85
2022/12/09 06:25:23;;;;;;;21.80;15.68;;;4.10;99.90;;;;;;5068181;28;20205;-87
2022/12/09 06:27:53;;;;;;;31.73;18.77;;;4.10;99.90;;;;;;5067684;28;20216;-84
2022/12/09 06:30:28;;;;;;;26.25;16.00;;;4.20;99.90;;;;;;5072440;28;20203;-84
2022/12/09 06:32:56;;;;;;;23.90;15.57;;;4.10;99.90;;;;;;5062608;28;20231;-84
2022/12/09 06:35:24;;;;;;;22.35;16.55;;;4.10;99.90;;;;;;5066934;28;20803;-83
2022/12/09 06:37:52;;;;;;;27.85;17.98;;;4.00;99.90;;;;;;5055253;28;20200;-85
2022/12/09 06:40:22;;;;;;;31.25;17.15;;;4.00;99.90;;;;;;5062056;28;20208;-83
2022/12/09 06:42:55;;;;;;;33.70;19.75;;;4.10;99.90;;;;;;5071837;28;20188;-84
2022/12/09 06:45:22;;;;;;;34.75;19.42;;;4.00;99.90;;;;;;5066292;28;20280;-84
2022/12/09 06:47:49;;;;;;;33.75;20.25;;;4.10;99.90;;;;;;5061131;28;20204;-85
2022/12/09 06:50:28;;;;;;;29.15;18.10;;;4.10;99.90;;;;;;5038406;28;20200;-85
2022/12/09 06:53:08;;;;;;;24.88;17.73;;;4.10;99.90;;;;;;5071360;28;20191;-84
2022/12/09 06:55:48;;;;;;;34.70;17.13;;;4.10;99.90;;;;;;5068261;28;20226;-86
2022/12/09 06:58:16;;;;;;;31.13;16.75;;;4.10;99.90;;;;;;5062026;28;20270;-85
2022/12/09 07:00:45;;;;;;;21.60;14.75;;;4.00;99.90;;;;;;5072406;28;20208;-83
2022/12/09 07:03:18;;;;;;;31.42;16.55;;;4.00;99.90;;;;;;5045140;28;20201;-86
2022/12/09 07:05:47;;;;;;;22.00;14.52;;;3.90;99.90;;;;;;5067682;28;20265;-83
2022/12/09 07:08:14;;;;;;;27.45;18.17;;;3.90;99.90;;;;;;5062621;28;20212;-83
2022/12/09 07:10:44;;;;;;;27.05;16.92;;;3.80;99.90;;;;;;5055885;28;20231;-83
2022/12/09 07:13:17;;;;;;;21.65;15.32;;;3.70;99.90;;;;;;5073284;28;20200;-83
2022/12/09 07:15:45;;;;;;;41.83;18.92;;;3.70;99.90;;;;;;5072441;28;20554;-84
2022/12/09 07:18:29;;;;;;;31.55;17.42;;;3.60;99.90;;;;;;5063659;28;20218;-84
2022/12/09 07:21:12;;;;;;;25.10;17.92;;;3.60;99.90;;;;;;5048030;28;20210;-83
2022/12/09 07:23:46;;;;;;;35.60;19.92;;;3.40;99.90;;;;;;5068586;28;20250;-83
2022/12/09 07:26:17;;;;;;;29.60;18.63;;;3.20;99.90;;;;;;5063753;28;20765;-83
2022/12/09 07:28:51;;;;;;;38.25;19.50;;;3.20;99.90;;;;;;5067626;28;20575;-84
2022/12/09 07:31:27;;;;;;;26.05;18.85;;;3.20;99.90;;;;;;5048961;28;20209;-85
2022/12/09 07:33:57;;;;;;;28.67;18.13;;;3.20;99.90;;;;;;5069879;28;20210;-85
2022/12/09 07:36:30;;;;;;;30.38;19.65;;;3.40;99.90;;;;;;5066815;28;20416;-85
2022/12/09 07:39:14;;;;;;;25.80;16.75;;;3.30;99.90;;;;;;5060445;28;20270;-85
2022/12/09 07:42:03;;;;;;;27.42;18.95;;;3.30;99.90;;;;;;5051656;28;20208;-86
2022/12/09 07:44:38;;;;;;;21.88;16.02;;;3.30;99.90;;;;;;5063463;28;20423;-86
2022/12/09 07:47:06;;;;;;;25.98;17.20;;;3.40;99.90;;;;;;5069302;28;20208;-84
2022/12/09 07:49:35;;;;;;;31.55;18.65;;;3.60;99.90;;;;;;5064340;28;20220;-84
2022/12/09 07:52:08;;;;;;;27.80;16.42;;;3.60;99.90;;;;;;5072091;28;20538;-85
2022/12/09 07:54:36;;;;;;;25.67;17.70;;;3.60;99.90;;;;;;5063361;28;20213;-85
2022/12/09 07:57:04;;;;;;;31.05;17.80;;;3.60;99.90;;;;;;5070159;28;20516;-84
2022/12/09 07:59:34;;;;;;;25.95;19.60;;;3.60;99.90;;;;;;5051291;28;20396;-84
2022/12/09 08:02:02;;;;;;;28.33;17.08;;;3.60;99.90;;;;;;5063779;28;20208;-83
2022/12/09 08:04:35;;;;;;;23.48;17.05;;;3.60;99.90;;;;;;5059830;28;20277;-84
2022/12/09 08:07:05;;;;;;;29.05;18.50;;;3.60;99.90;;;;;;5056938;28;20220;-84
2022/12/09 08:09:33;;;;;;;21.40;16.13;;;3.60;99.90;;;;;;5062705;28;20286;-83
2022/12/09 08:12:02;;;;;;;28.17;15.75;;;3.50;99.90;;;;;;5053829;28;20253;-84
2022/12/09 08:14:35;;;;;;;25.75;17.17;;;3.70;99.90;;;;;;5066824;28;20414;-83
2022/12/09 08:17:02;;;;;;;27.95;18.30;;;3.80;99.90;;;;;;5058965;28;20282;-83
2022/12/09 08:19:39;;;;;;;26.38;17.08;;;4.00;99.90;;;;;;5065631;28;20269;-84
2022/12/09 08:22:13;;;;;;;28.98;16.80;;;4.00;99.90;;;;;;5065481;28;20215;-82
2022/12/09 08:24:40;;;;;;;33.55;16.95;;;4.00;99.90;;;;;;5065520;28;20234;-83
2022/12/09 08:27:14;;;;;;;31.00;19.65;;;3.70;99.90;;;;;;5076689;28;20203;-82
2022/12/09 08:29:44;;;;;;;42.63;19.52;;;3.90;99.90;;;;;;5071325;28;20309;-83
2022/12/09 08:32:17;;;;;;;31.33;21.35;;;3.90;99.90;;;;;;5060700;28;20199;-83
2022/12/09 08:34:45;;;;;;;35.60;22.38;;;4.00;99.90;;;;;;5060714;28;20308;-82
2022/12/09 08:37:17;;;;;;;31.55;19.88;;;4.10;99.90;;;;;;5072848;28;20401;-83
2022/12/09 08:39:47;;;;;;;30.05;19.45;;;4.20;99.90;;;;;;5075983;28;20209;-83
2022/12/09 08:42:21;;;;;;;39.50;23.02;;;4.10;99.90;;;;;;5044347;28;20501;-83
2022/12/09 08:44:49;;;;;;;34.55;20.58;;;3.80;99.90;;;;;;5070222;28;20192;-84
2022/12/09 08:47:28;;;;;;;36.67;19.65;;;3.80;99.90;;;;;;5075428;28;20259;-83
2022/12/09 08:49:57;;;;;;;37.92;23.33;;;3.70;99.90;;;;;;5078458;28;20215;-83
2022/12/09 08:52:30;;;;;;;39.30;20.85;;;3.70;99.90;;;;;;5078599;28;20208;-83
2022/12/09 08:55:06;;;;;;;32.42;20.80;;;3.70;99.90;;;;;;5066932;28;20547;-82
2022/12/09 08:57:33;;;;;;;29.85;22.58;;;3.80;99.90;;;;;;5066700;28;20223;-83
2022/12/09 09:00:03;;;;;;;33.58;21.73;;;3.70;99.90;;;;;;5068531;28;20207;-83
2022/12/09 09:02:34;;;;;;;30.15;23.05;;;3.90;99.90;;;;;;5068761;28;20275;-83
2022/12/09 09:05:06;;;;;;;40.72;20.92;;;3.90;99.90;;;;;;5067898;28;20200;-83
2022/12/09 09:07:34;;;;;;;33.33;23.48;;;4.00;99.90;;;;;;5079471;28;20192;-83
2022/12/09 09:10:04;;;;;;;32.70;22.70;;;3.90;99.90;;;;;;5051069;28;20279;-83
2022/12/09 09:12:34;;;;;;;32.08;20.98;;;4.10;99.90;;;;;;5054392;28;20255;-85
2022/12/09 09:15:10;;;;;;;32.97;21.13;;;4.30;99.90;;;;;;5077960;28;20204;-83
2022/12/09 09:17:39;;;;;;;37.90;20.60;;;4.30;99.90;;;;;;5068407;28;20236;-84
2022/12/09 09:20:16;;;;;;;28.98;20.60;;;4.30;99.90;;;;;;5066826;28;20208;-84
2022/12/09 09:22:44;;;;;;;31.55;19.23;;;4.10;99.90;;;;;;5069095;28;20485;-86
2022/12/09 09:25:11;;;;;;;33.35;21.88;;;4.40;99.90;;;;;;5072460;28;20264;-84
2022/12/09 09:27:46;;;;;;;30.08;20.63;;;4.50;99.90;;;;;;5087024;28;20286;-83
2022/12/09 09:30:19;;;;;;;32.38;19.75;;;4.80;99.90;;;;;;5084146;28;20258;-83
2022/12/09 09:32:50;;;;;;;25.38;19.65;;;4.60;99.90;;;;;;5060200;28;20207;-87
2022/12/09 09:35:22;;;;;;;51.83;21.35;;;4.40;99.90;;;;;;5079656;28;20246;-81
2022/12/09 09:37:53;;;;;;;32.13;20.20;;;4.00;99.90;;;;;;5071369;28;20196;-85
2022/12/09 09:40:28;;;;;;;32.70;20.30;;;4.10;99.90;;;;;;5074188;28;20196;-83
2022/12/09 09:43:01;;;;;;;30.25;20.85;;;4.60;99.90;;;;;;5057568;28;20223;-85
2022/12/09 09:45:29;;;;;;;33.63;21.30;;;4.10;99.90;;;;;;5057188;28;20223;-87
2022/12/09 09:48:01;;;;;;;30.00;18.50;;;4.50;99.90;;;;;;5065541;28;20504;-84
2022/12/09 09:50:43;;;;;;;28.83;19.23;;;4.60;99.90;;;;;;5059960;28;20192;-86
2022/12/09 09:53:34;;;;;;;30.88;18.08;;;4.70;99.90;;;;;;5066309;28;20201;-86
2022/12/09 09:56:19;;;;;;;29.90;21.70;;;4.60;99.90;;;;;;5060537;28;20224;-83
2022/12/09 09:59:16;;;;;;;32.08;20.85;;;4.30;99.90;;;;;;5076605;28;20206;-85
2022/12/09 10:02:29;;;;;;;22.88;17.67;;;4.10;99.90;;;;;;5060398;28;20240;-84
2022/12/09 10:05:21;;;;;;;32.70;19.40;;;4.00;99.90;;;;;;5085081;28;20214;-83
2022/12/09 10:08:19;;;;;;;39.35;20.25;;;3.90;99.90;;;;;;5064461;28;20221;-87
2022/12/09 10:13:59;;;;;;;29.80;17.98;;;3.80;99.90;;;;;;5032689;28;20271;-87
2022/12/09 10:16:43;;;;;;;26.58;16.75;;;3.90;99.90;;;;;;5024209;28;20229;-88
2022/12/09 10:19:28;;;;;;;27.80;18.27;;;3.90;99.90;;;;;;5024166;28;20427;-87
2022/12/09 10:21:59;;;;;;;20.60;16.20;;;3.90;99.90;;;;;;5014468;28;20229;-84
2022/12/09 10:24:31;;;;;;;22.95;16.08;;;3.80;99.90;;;;;;5024214;28;20209;-83
2022/12/09 10:27:34;;;;;;;23.10;14.43;;;3.60;99.90;;;;;;5024590;28;20201;-84
2022/12/09 10:30:23;;;;;;;22.63;15.82;;;3.90;99.90;;;;;;5010308;28;20209;-83
2022/12/09 10:33:10;;;;;;;24.67;15.80;;;4.10;99.90;;;;;;5018477;28;20202;-84
2022/12/09 10:35:52;;;;;;;21.73;16.10;;;4.20;99.90;;;;;;5015992;28;20208;-85
2022/12/09 10:38:24;;;;;;;22.63;15.45;;;4.20;99.90;;;;;;5019371;28;20243;-83
2022/12/09 10:41:00;;;;;;;22.38;16.42;;;4.20;99.90;;;;;;5016808;28;20213;-84
2022/12/09 10:43:41;;;;;;;28.10;19.27;;;4.20;99.90;;;;;;5019821;28;20268;-84
2022/12/09 10:46:19;;;;;;;31.90;19.10;;;4.50;99.90;;;;;;5016408;28;20227;-88
2022/12/09 10:48:51;;;;;;;25.63;16.45;;;4.80;99.90;;;;;;5011297;28;20585;-84
2022/12/09 10:51:22;;;;;;;26.83;16.63;;;4.60;99.90;;;;;;5015584;28;20206;-83
2022/12/09 10:54:03;;;;;;;25.40;16.35;;;4.80;99.90;;;;;;5017955;28;20497;-86
2022/12/09 10:57:16;;;;;;;24.00;16.52;;;4.90;99.90;;;;;;5018897;28;20249;-83
2022/12/09 11:00:10;;;;;;;21.38;14.43;;;4.80;99.90;;;;;;5033652;28;20195;-83
2022/12/09 11:02:50;;;;;;;21.48;14.75;;;4.80;99.90;;;;;;5006645;28;20190;-89
2022/12/09 11:05:29;;;;;;;19.75;14.75;;;4.60;99.90;;;;;;5012559;28;20479;-88
2022/12/09 11:07:58;;;;;;;24.65;14.40;;;4.50;99.90;;;;;;5020404;28;20216;-83
2022/12/09 11:10:31;;;;;;;22.80;14.95;;;4.40;99.90;;;;;;5014848;28;20193;-87
2022/12/09 11:13:12;;;;;;;21.20;14.10;;;4.40;99.90;;;;;;5010696;28;20217;-87
2022/12/09 11:16:03;;;;;;;22.80;15.27;;;4.40;99.90;;;;;;5021084;28;20213;-84
2022/12/09 11:18:48;;;;;;;23.95;16.27;;;4.40;99.90;;;;;;5009964;28;20209;-86
2022/12/09 11:21:40;;;;;;;18.30;12.70;;;4.50;99.90;;;;;;5018979;28;20454;-86
2022/12/09 11:24:39;;;;;;;18.20;14.20;;;4.80;99.90;;;;;;5011667;28;20266;-87
2022/12/09 11:27:34;;;;;;;21.45;13.57;;;4.50;99.90;;;;;;5003731;28;20206;-84
2022/12/09 11:30:14;;;;;;;20.45;12.30;;;4.40;99.90;;;;;;5011500;28;20386;-85
2022/12/09 11:33:16;;;;;;;23.92;14.35;;;4.60;99.90;;;;;;5024464;28;20249;-85
2022/12/09 11:35:48;;;;;;;17.70;13.15;;;4.50;99.90;;;;;;5015673;28;20198;-84
2022/12/09 11:38:42;;;;;;;21.00;14.15;;;4.40;99.90;;;;;;5017214;28;20232;-85
2022/12/09 11:42:12;;;;;;;35.72;15.82;;;4.20;99.90;;;;;;5028266;28;20210;-85
2022/12/09 11:44:33;;;;;;;18.75;13.73;;;4.00;99.90;;;;;;5022398;28;20205;-84
2022/12/09 11:47:51;;;;;;;27.08;16.73;;;4.20;99.90;;;;;;5026184;28;20312;-88
2022/12/09 11:50:42;;;;;;;21.23;14.57;;;4.10;99.90;;;;;;5022667;28;20276;-87
2022/12/09 11:53:32;;;;;;;20.63;13.18;;;4.20;99.90;;;;;;5025468;28;20205;-90
2022/12/09 11:56:25;;;;;;;24.17;14.13;;;4.40;99.90;;;;;;4992645;28;20194;-83
2022/12/09 11:59:16;;;;;;;18.65;12.57;;;4.80;99.90;;;;;;5021642;28;20213;-85
2022/12/09 12:02:12;;;;;;;19.95;14.30;;;4.70;99.90;;;;;;5007117;28;20434;-85
2022/12/09 12:05:12;;;;;;;20.88;13.85;;;4.70;99.90;;;;;;5010728;28;20442;-86
2022/12/09 12:08:45;;;;;;;16.92;12.93;;;4.80;99.90;;;;;;5101103;28;20672;-85
2022/12/09 12:11:19;;;;;;;19.25;13.73;;;4.70;99.90;;;;;;5111422;28;20510;-85
2022/12/09 12:14:17;;;;;;;20.80;13.48;;;4.80;99.90;;;;;;5099205;28;20625;-86
2022/12/09 12:17:08;;;;;;;20.05;13.02;;;4.90;99.90;;;;;;5101060;28;20199;-85
2022/12/09 12:19:56;;;;;;;20.20;12.45;;;4.90;99.90;;;;;;5093773;28;20211;-89
2022/12/09 12:22:55;;;;;;;19.00;13.25;;;4.90;99.90;;;;;;5094996;28;20378;-83
2022/12/09 12:26:06;;;;;;;14.88;11.45;;;5.00;99.90;;;;;;5109313;28;20455;-84
2022/12/09 12:29:05;;;;;;;15.02;9.82;;;5.10;99.90;;;;;;5100338;28;20270;-88
2022/12/09 12:31:55;;;;;;;24.15;13.27;;;5.20;99.90;;;;;;5102358;28;20206;-86
2022/12/09 12:34:53;;;;;;;14.95;11.43;;;5.20;99.90;;;;;;5101574;28;20195;-85
2022/12/09 12:38:01;;;;;;;19.13;12.82;;;5.10;99.90;;;;;;5106519;28;20264;-84
2022/12/09 12:40:51;;;;;;;21.23;14.52;;;4.80;99.90;;;;;;5123078;28;20209;-85
2022/12/09 12:47:11;;;;;;;20.98;16.95;;;4.50;99.90;;;;;;5090178;28;20222;-88
2022/12/09 12:49:53;;;;;;;23.13;17.10;;;4.50;99.90;;;;;;5110338;28;20230;-86
2022/12/09 12:53:10;;;;;;;27.60;17.02;;;4.50;99.90;;;;;;5115317;28;20206;-90
2022/12/09 12:56:35;;;;;;;24.77;16.73;;;4.40;99.90;;;;;;5111423;28;20211;-87
2022/12/09 12:59:26;;;;;;;24.73;16.90;;;4.40;99.90;;;;;;5088323;28;20387;-84
2022/12/09 13:02:24;;;;;;;24.92;16.55;;;4.40;99.90;;;;;;5090829;28;20195;-88
2022/12/09 13:05:41;;;;;;;24.98;15.85;;;4.40;99.90;;;;;;5108148;28;20209;-87
2022/12/09 13:08:29;;;;;;;27.90;18.88;;;4.40;99.90;;;;;;5106329;28;20230;-85
2022/12/09 13:11:38;;;;;;;24.92;16.25;;;4.40;99.90;;;;;;5106502;28;20198;-87
2022/12/09 13:15:05;;;;;;;26.40;16.55;;;4.40;99.90;;;;;;5102401;28;20279;-86
2022/12/09 13:17:40;;;;;;;21.65;15.93;;;4.40;99.90;;;;;;5088923;28;20206;-87
2022/12/09 13:20:47;;;;;;;23.48;17.40;;;4.50;99.90;;;;;;5076020;28;20286;-87
2022/12/09 13:24:25;;;;;;;28.10;18.10;;;4.40;99.90;;;;;;5083867;28;20206;-89
2022/12/09 13:27:31;;;;;;;24.48;17.77;;;4.40;99.90;;;;;;5054403;28;20262;-86
2022/12/09 13:30:35;;;;;;;26.33;15.45;;;4.40;99.90;;;;;;5078648;28;20200;-87
2022/12/09 13:34:04;;;;;;;24.90;17.27;;;4.50;99.90;;;;;;5095642;28;20263;-84